Tiempo atmosférico en la estación meteorológica de Agaete, Las Palmas (5 m.)



Fecha
DESCASC
Temp. máxima en grados centígrados (hora)
DESCASC
Temp. mínima en grados centígrados (hora)
DESCASC
Temp. media en grados centígrados
DESCASC
Racha de viento máxima en m/sg (hora)
DESCASC
Velocidad máxima media en intervalos de 10 minutos(hora)
DESCASC
Precipitaciones diarias en mm
DESCASC
Precipitaciones de 00:00 a 06:00 en mm
DESCASC
Precipitaciones de 06:00 a 12:00 en mm
DESCASC
Precipitaciones de 12:00 a 18:00 en mm
DESCASC
Precipitaciones de 18:00 a 24:00 en mm
DESCASC
02-08-2020 27.6 (16:00) 22.7 (04:30) 25.2 17.22 (19:10) 11.11 (17:20) 0 0 0 0 0
01-08-2020 28.1 (19:00) 22.3 (03:50) 25.2 15.28 (16:10) 8.61 (16:10) 0 0 0 0 0
31-07-2020 26.6 (15:20) 21.9 (04:50) 24.3 15.56 (01:00) 9.72 (01:20) 0 0 0 0 0
30-07-2020 25.9 (16:20) 21.4 (00:00) 23.6 14.17 (05:10) 8.89 (08:00) 0 0 0 0 0
29-07-2020 26 (15:30) 22.1 (00:00) 24.1 16.11 (12:10) 10.28 (13:00) 0 0 0 0 0
28-07-2020 25.8 (14:30) 22 (00:00) 23.9 20.28 (16:10) 12.5 (11:30) 0 0 0 0 0
27-07-2020 25.9 (14:40) 21.8 (00:00) 23.8 18.61 (09:10) 11.67 (09:10) 0 0 0 0 0
26-07-2020 26.6 (16:20) 22.3 (00:00) 24.4 14.17 (12:40) 9.17 (12:20) 0 0 0 0 0
25-07-2020 25.8 (15:50) 21.6 (00:00) 23.7 17.5 (19:10) 10.28 (15:00) 0 0 0 0 0
24-07-2020 -- (--) -- (--) -- -- (--) -- (--) -- 0 -- 0 0
23-07-2020 25.7 (14:30) 21.7 (00:00) 23.7 20.56 (15:10) 11.67 (09:50) 0 0 0 0 0
22-07-2020 26 (15:40) 22.2 (00:00) 24.1 16.11 (12:10) 10 (22:50) 0 0 0 0 0
21-07-2020 25.4 (16:20) 22 (00:00) 23.7 17.78 (13:10) 10 (15:50) 0 0 0 0 0
20-07-2020 28.4 (00:00) 22.3 (00:00) 25.3 16.11 (09:10) 10.28 (16:40) 0 0 0 0 0
19-07-2020 32.6 (10:20) 22.5 (00:00) 27.5 19.44 (15:10) 14.17 (12:50) 0 0 0 0 0
18-07-2020 28.5 (16:20) 21.9 (00:00) 25.2 16.11 (21:10) 13.33 (23:59) 0 0 0 0 0
17-07-2020 24.6 (15:40) 21.4 (00:00) 23 12.78 (16:10) 8.89 (16:10) 0 0 0 0 0
16-07-2020 24.9 (14:20) 21.3 (00:00) 23.1 16.39 (17:10) 10 (17:00) 0 0 0 0 0
15-07-2020 24.6 (13:10) 21.6 (00:00) 23.1 17.5 (20:10) 9.72 (23:40) 0 0 0 0 0
14-07-2020 24 (13:50) 21.2 (00:00) 22.6 12.78 (13:10) 7.22 (15:30) 0 0 0 0 0
13-07-2020 25.1 (17:20) 21.1 (00:00) 23.1 13.89 (13:10) 8.89 (15:00) 0 0 0 0 0
12-07-2020 26.8 (15:00) 21.2 (06:50) 24 15.28 (01:30) 9.72 (03:40) 0 0 0 0 0
11-07-2020 24.7 (13:40) 21.7 (06:50) 23.2 22.22 (18:10) 11.67 (14:30) 0 0 0 0 0
10-07-2020 25.2 (16:00) 21.5 (00:00) 23.4 13.61 (12:50) 8.61 (17:20) 0 0 0 0 0
09-07-2020 25.7 (14:50) 21.8 (03:40) 23.8 19.17 (17:10) 11.39 (12:50) 0 0 0 0 0
08-07-2020 33.4 (16:20) 22 (07:40) 27.7 20.56 (13:30) 15 (12:00) 0 0 0 0 0

Gráficas

Temp. máximas Temp. mínimas Temp. medias Precipitaciones Rachas de viento máximas Velocidades máximas media en intervalos de 10 minutos

Datos horarios

Fecha y hora oficial Temperatura (ºC) Velocidad del viento (km/h) Dirección del viento Racha (km/h) Dirección de racha Precipitación (mm) Presión (hPa) Tendencia (hPa) Humedad (%)
2020-08-06 23:00:00 23.4 16 Nordeste 30 Este 0 -- -- 65
2020-08-06 22:00:00 23.5 12 Nordeste 26 Nordeste 0 -- -- 67
2020-08-06 21:00:00 23.5 15 Norte 30 Norte 0 -- -- 65
2020-08-06 20:00:00 24.3 17 Norte 32 Norte 0 -- -- 67
2020-08-06 19:00:00 23.9 26 Norte 40 Norte 0 -- -- 73
2020-08-06 18:00:00 24.5 26 Norte 42 Norte 0 -- -- 71
2020-08-06 17:00:00 25.1 25 Norte 37 Norte 0 -- -- 61
2020-08-06 16:00:00 25.5 22 Norte 36 Norte 0 -- -- 60
2020-08-06 15:00:00 25 24 Norte 50 Norte 0 -- -- 62
2020-08-06 14:00:00 24.6 30 Norte 46 Norte 0 -- -- 64
2020-08-06 13:00:00 24.7 28 Norte 38 Norte 0 -- -- 66
2020-08-06 12:00:00 24.8 21 Norte 35 Norte 0 -- -- 64
2020-08-06 11:00:00 24.1 15 Norte 28 Nordeste 0 -- -- 65
2020-08-06 10:00:00 23.3 11 Nordeste 23 Nordeste 0 -- -- 66
2020-08-06 09:00:00 22.8 14 Nordeste 26 Nordeste 0 -- -- 68
2020-08-06 08:00:00 22.6 11 Nordeste 24 Nordeste 0 -- -- 69
2020-08-06 07:00:00 22.2 14 Nordeste 27 Nordeste 0 -- -- 72
2020-08-06 06:00:00 22 12 Nordeste 24 Nordeste 0 -- -- 72
2020-08-06 05:00:00 22.2 15 Nordeste 30 Nordeste 0 -- -- 72
2020-08-06 04:00:00 22.4 14 Nordeste 27 Nordeste 0 -- -- 73
2020-08-06 03:00:00 22.6 14 Norte 25 Nordeste 0 -- -- 72
2020-08-06 02:00:00 22.4 12 Nordeste 27 Nordeste 0 -- -- 72
2020-08-06 01:00:00 22.7 13 Nordeste 29 Nordeste 0 -- -- 70
2020-08-06 00:00:00 22.8 15 Nordeste 28 Norte 0 -- -- 72
2020-08-05 23:00:00 22.9 15 Nordeste 28 Norte 0 -- -- 72
2020-08-05 22:00:00 23.2 13 Nordeste 34 Norte 0 -- -- 70
2020-08-05 21:00:00 23.1 18 Norte 31 Norte 0 -- -- 70
2020-08-05 20:00:00 24 21 Norte 36 Norte 0 -- -- 66
2020-08-05 19:00:00 24.4 26 Norte 39 Norte 0 -- -- 64
2020-08-05 18:00:00 24.7 27 Norte 40 Norte 0 -- -- 65
2020-08-05 17:00:00 25.2 25 Norte 49 Norte 0 -- -- 65
2020-08-05 16:00:00 24.6 31 Norte 44 Norte 0 -- -- 65
2020-08-05 15:00:00 24.8 31 Norte 42 Norte 0 -- -- 66
2020-08-05 14:00:00 25 24 Norte 44 Norte 0 -- -- 63
2020-08-05 13:00:00 25 25 Norte 43 Norte 0 -- -- 62
2020-08-05 12:00:00 24.4 27 Norte 43 Norte 0 -- -- 65
2020-08-05 11:00:00 24 26 Norte 40 Norte 0 -- -- 65
2020-08-05 10:00:00 23.8 26 Norte 41 Norte 0 -- -- 66
2020-08-05 09:00:00 23.4 21 Nordeste 37 Nordeste 0 -- -- 67
2020-08-05 08:00:00 22.5 21 Nordeste 40 Nordeste 0 -- -- 70
2020-08-05 07:00:00 22.4 19 Nordeste 49 Norte 0 -- -- 72
2020-08-05 06:00:00 22.5 20 Nordeste 36 Nordeste 0 -- -- 72
2020-08-05 05:00:00 22.7 20 Nordeste 35 Nordeste 0 -- -- 71
2020-08-05 04:00:00 22.7 20 Nordeste 34 Nordeste 0 -- -- 73
2020-08-05 03:00:00 22.6 19 Nordeste 36 Nordeste 0 -- -- 76
2020-08-05 02:00:00 22.9 20 Nordeste 36 Nordeste 0 -- -- 73
2020-08-05 01:00:00 23 21 Nordeste 37 Nordeste 0 -- -- 73
2020-08-05 00:00:00 23.1 21 Nordeste 34 Nordeste 0 -- -- 73
2020-08-04 23:00:00 23.2 21 Nordeste 37 Nordeste 0 -- -- 73
2020-08-04 22:00:00 23.3 20 Nordeste 35 Nordeste 0 -- -- 73
2020-08-04 21:00:00 23.5 18 Nordeste 40 Nordeste 0 -- -- 71
2020-08-04 20:00:00 24.1 22 Nordeste 42 Nordeste 0 -- -- 69
2020-08-04 19:00:00 24.9 26 Nordeste 44 Norte 0 -- -- 66
2020-08-04 18:00:00 25.7 24 Nordeste 58 Norte 0 -- -- 62
2020-08-04 17:00:00 25.4 32 Norte 54 Nordeste 0 -- -- 66
2020-08-04 16:00:00 25.6 28 Norte 53 Norte 0 -- -- 66
2020-08-04 15:00:00 25.9 34 Norte 55 Norte 0 -- -- 62
2020-08-04 14:00:00 25.7 28 Norte 47 Norte 0 -- -- 64
2020-08-04 13:00:00 25.6 28 Norte 49 Nordeste 0 -- -- 64
2020-08-04 12:00:00 25.1 25 Norte 45 Nordeste 0 -- -- 65
2020-08-04 11:00:00 23.5 27 Nordeste 42 Norte 0 -- -- 74
2020-08-04 10:00:00 23.1 28 Nordeste 46 Nordeste 0 -- -- 73
2020-08-04 09:00:00 22.5 24 Nordeste 46 Nordeste 0 -- -- 76
2020-08-04 08:00:00 22.5 22 Nordeste 43 Norte 0 -- -- 74
2020-08-04 07:00:00 22.3 30 Nordeste 47 Nordeste 0 -- -- 74
2020-08-04 06:00:00 22.3 25 Nordeste 50 Nordeste 0 -- -- 72
2020-08-04 05:00:00 22 26 Nordeste 43 Nordeste 0 -- -- 74
2020-08-04 04:00:00 22 27 Nordeste 52 Norte 0 -- -- 75
2020-08-04 03:00:00 22.1 33 Norte 53 Nordeste 0 -- -- 74
2020-08-04 02:00:00 22.3 32 Norte 51 Norte 0 -- -- 74
2020-08-04 01:00:00 22.5 32 Norte 50 Nordeste 0 -- -- 72
2020-08-04 00:00:00 22.7 32 Norte 51 Norte 0 -- -- 72
2020-08-03 23:00:00 22.8 35 Nordeste 59 Norte 0 -- -- 72
2020-08-03 22:00:00 22.9 31 Norte 50 Nordeste 0 -- -- 72
2020-08-03 21:00:00 23.2 31 Norte 47 Norte 0 -- -- 69
2020-08-03 20:00:00 23.9 30 Norte 49 Norte 0 -- -- 67
2020-08-03 19:00:00 25 28 Norte 44 Norte 0 -- -- 64
2020-08-03 18:00:00 25.4 31 Norte 54 Norte 0 -- -- 62
2020-08-03 17:00:00 25.3 34 Norte 62 Norte 0 -- -- 61
2020-08-03 16:00:00 25.3 39 Norte 56 Norte 0 -- -- 63
2020-08-03 15:00:00 25.1 40 Norte 73 Norte 0 -- -- 64
2020-08-03 14:00:00 24.9 39 Norte 60 Norte 0 -- -- 63
2020-08-03 13:00:00 24.4 40 Norte 59 Norte 0 -- -- 68
2020-08-03 12:00:00 24.4 40 Norte 57 Nordeste 0 -- -- 66
2020-08-03 11:00:00 23.5 37 Norte 54 Norte 0 -- -- 74
2020-08-03 10:00:00 23.5 36 Norte 52 Norte 0 -- -- 73
2020-08-03 09:00:00 23.2 26 Norte 45 Norte 0 -- -- 74
2020-08-03 08:00:00 22.9 23 Norte 44 Norte 0 -- -- 73
2020-08-03 07:00:00 22.7 27 Norte 51 Norte 0 -- -- 74
2020-08-03 06:00:00 22.7 28 Norte 48 Norte 0 -- -- 76
2020-08-03 05:00:00 22.8 28 Norte 48 Nordeste 0 -- -- 76
2020-08-03 04:00:00 23.3 29 Norte 48 Norte 0 -- -- 72
2020-08-03 03:00:00 23.7 28 Norte 42 Norte 0 -- -- 68
2020-08-03 02:00:00 24.1 29 Norte 45 Norte 0 -- -- 66
2020-08-03 01:00:00 23.6 34 Norte 59 Norte 0 -- -- 72
2020-08-03 00:00:00 23.5 40 Norte 55 Norte 0 -- -- 74
2020-08-02 23:00:00 23.3 32 Norte 47 Norte 0 -- -- 76
2020-08-02 22:00:00 23.4 32 Norte 55 Norte 0 -- -- 77
2020-08-02 21:00:00 23.7 35 Norte 50 Norte 0 -- -- 77
2020-08-02 20:00:00 24.6 34 Norte 62 Norte 0 -- -- 73
2020-08-02 19:00:00 25.4 35 Norte 54 Norte 0 -- -- 69
2020-08-02 18:00:00 25.7 36 Norte 60 Norte 0 -- -- 69
2020-08-02 17:00:00 26.4 38 Norte 55 Norte 0 -- -- 64
2020-08-02 16:00:00 27.6 24 Norte 53 Nordeste 0 -- -- 60
2020-08-02 15:00:00 26.2 35 Norte 53 Norte 0 -- -- 65
2020-08-02 14:00:00 26.2 32 Norte 50 Norte 0 -- -- 66
2020-08-02 13:00:00 25.6 33 Nordeste 48 Nordeste 0 -- -- 68
2020-08-02 12:00:00 24.4 35 Nordeste 52 Nordeste 0 -- -- 71
2020-08-02 11:00:00 24.7 26 Norte 49 Nordeste 0 -- -- 72
2020-08-02 10:00:00 23.9 30 Nordeste 50 Norte 0 -- -- 74
2020-08-02 09:00:00 23.1 31 Norte 49 Nordeste 0 -- -- 78
2020-08-02 08:00:00 22.8 27 Nordeste 51 Nordeste 0 -- -- 77
2020-08-02 07:00:00 22.9 31 Norte 47 Norte 0 -- -- 75
2020-08-02 06:00:00 22.8 23 Norte 38 Nordeste 0 -- -- 76
2020-08-02 05:00:00 22.7 20 Nordeste 42 Norte 0 -- -- 76
2020-08-02 04:00:00 22.8 25 Nordeste 44 Nordeste 0 -- -- 77
2020-08-02 03:00:00 23 22 Nordeste 40 Nordeste 0 -- -- 77
2020-08-02 02:00:00 23 23 Nordeste 39 Nordeste 0 -- -- 77
2020-08-02 01:00:00 23 17 Nordeste 40 Nordeste 0 -- -- 78
2020-08-02 00:00:00 23 27 Nordeste 41 Nordeste 0 -- -- 78
2020-08-01 23:00:00 23 22 Nordeste 39 Nordeste 0 -- -- 79
2020-08-01 22:00:00 23 17 Norte 35 Norte 0 -- -- 78
2020-08-01 21:00:00 23.7 19 Norte 34 Norte 0 -- -- 73
2020-08-01 20:00:00 24.9 20 Norte 37 Nordeste 0 -- -- 66
2020-08-01 19:00:00 28.1 18 Nordeste 36 Norte 0 -- -- 50
2020-08-01 18:00:00 26.3 22 Norte 40 Nordeste 0 -- -- 64
2020-08-01 17:00:00 26.7 20 Norte 55 Norte 0 -- -- 63
2020-08-01 16:00:00 26 27 Norte 40 Norte 0 -- -- 66
2020-08-01 15:00:00 26 25 Norte 35 Norte 0 -- -- 66
2020-08-01 14:00:00 26.8 17 Norte 35 Nordeste 0 -- -- 60
2020-08-01 13:00:00 26.2 14 Nordeste 34 Nordeste 0 -- -- 64
2020-08-01 12:00:00 26.3 13 Nordeste 30 Nordeste 0 -- -- 62
2020-08-01 11:00:00 25.4 15 Nordeste 37 Nordeste 0 -- -- 65
2020-08-01 10:00:00 24.1 16 Nordeste 36 Nordeste 0 -- -- 70
2020-08-01 09:00:00 23.3 15 Nordeste 30 Nordeste 0 -- -- 72
2020-08-01 08:00:00 22.4 19 Nordeste 37 Sudeste 0 -- -- 75
2020-08-01 07:00:00 22.5 18 Sudeste 42 Este 0 -- -- 75
2020-08-01 06:00:00 22.6 18 Nordeste 33 Nordeste 0 -- -- 74
2020-08-01 05:00:00 22.4 11 Sudeste 29 Sudeste 0 -- -- 75
2020-08-01 04:00:00 22.3 16 Este 38 Este 0 -- -- 75
2020-08-01 03:00:00 22.4 16 Nordeste 33 Este 0 -- -- 74
2020-08-01 02:00:00 22.8 8 Nordeste 31 Nordeste 0 -- -- 72
2020-08-01 01:00:00 22.6 16 Nordeste 39 Nordeste 0 -- -- 74
2020-08-01 00:00:00 22.9 20 Nordeste 36 Nordeste 0 -- -- 73
2020-07-31 23:00:00 22.9 17 Nordeste 45 Nordeste 0 -- -- 73
2020-07-31 22:00:00 22.9 26 Nordeste 42 Nordeste 0 -- -- 73
2020-07-31 21:00:00 23 19 Nordeste 38 Nordeste 0 -- -- 73
2020-07-31 20:00:00 23.7 24 Nordeste 39 Nordeste 0 -- -- 68
2020-07-31 19:00:00 24.8 21 Nordeste 38 Nordeste 0 -- -- 66
2020-07-31 18:00:00 25.8 18 Nordeste 36 Nordeste 0 -- -- 61
2020-07-31 17:00:00 26 18 Nordeste 32 Nordeste 0 -- -- 61
2020-07-31 16:00:00 26.2 19 Nordeste 34 Nordeste 0 -- -- 59
2020-07-31 15:00:00 26 18 Norte 42 Nordeste 0 -- -- 61
2020-07-31 14:00:00 25.8 19 Nordeste 33 Nordeste 0 -- -- 62
2020-07-31 13:00:00 26.2 15 Nordeste 38 Nordeste 0 -- -- 59
2020-07-31 12:00:00 25.3 20 Nordeste 37 Nordeste 0 -- -- 61
2020-07-31 11:00:00 24.4 18 Nordeste 38 Nordeste 0 -- -- 64
2020-07-31 10:00:00 23.8 15 Nordeste 35 Nordeste 0 -- -- 65
2020-07-31 09:00:00 22.8 17 Nordeste 33 Nordeste 0 -- -- 70
2020-07-31 08:00:00 22 15 Nordeste 28 Nordeste 0 -- -- 71
2020-07-31 07:00:00 22.2 12 Nordeste 43 Nordeste 0 -- -- 69
2020-07-31 06:00:00 22 23 Nordeste 42 Nordeste 0 -- -- 70
2020-07-31 05:00:00 21.9 23 Nordeste 40 Nordeste 0 -- -- 72
2020-07-31 04:00:00 22.1 24 Nordeste 46 Nordeste 0 -- -- 71
2020-07-31 03:00:00 22.1 20 Norte 49 Nordeste 0 -- -- 72
2020-07-31 02:00:00 22.3 26 Nordeste 55 Nordeste 0 -- -- 70
2020-07-31 01:00:00 22.2 33 Nordeste 56 Nordeste 0 -- -- 70
2020-07-31 00:00:00 22.3 25 Nordeste 43 Nordeste 0 -- -- 70
2020-07-30 23:00:00 22.4 23 Norte 41 Norte 0 -- -- 69
2020-07-30 22:00:00 22.5 27 Nordeste 45 Nordeste 0 -- -- 68
2020-07-30 21:00:00 22.7 26 Norte 40 Norte 0 -- -- 67
2020-07-30 20:00:00 23.6 22 Nordeste 43 Nordeste 0 -- -- 66
2020-07-30 19:00:00 24.6 23 Norte 40 Norte 0 -- -- 61
2020-07-30 18:00:00 25.2 22 Norte 47 Norte 0 -- -- 62
2020-07-30 17:00:00 25.1 29 Norte 48 Nordeste 0 -- -- 59
2020-07-30 16:00:00 25.4 27 Norte 46 Nordeste 0 -- -- 57
2020-07-30 15:00:00 25.8 21 Nordeste 45 Norte 0 -- -- 56
2020-07-30 14:00:00 25.6 23 Nordeste 41 Norte 0 -- -- 57
2020-07-30 13:00:00 24.8 24 Nordeste 43 Nordeste 0 -- -- 59
2020-07-30 12:00:00 24.4 22 Norte 44 Nordeste 0 -- -- 60
2020-07-30 11:00:00 23.8 24 Nordeste 43 Nordeste 0 -- -- 62
2020-07-30 10:00:00 23.1 23 Nordeste 47 Nordeste 0 -- -- 65
2020-07-30 09:00:00 22.6 24 Nordeste 47 Norte 0 -- -- 65
2020-07-30 08:00:00 21.6 32 Nordeste 48 Nordeste 0 -- -- 68
2020-07-30 07:00:00 21.4 24 Nordeste 44 Nordeste 0 -- -- 68
2020-07-30 06:00:00 21.5 28 Nordeste 51 Nordeste 0 -- -- 68
2020-07-30 05:00:00 21.7 30 Norte 44 Nordeste 0 -- -- 68
2020-07-30 04:00:00 21.9 22 Nordeste 43 Norte 0 -- -- 66
2020-07-30 03:00:00 22.3 19 Nordeste 41 Nordeste 0 -- -- 66
2020-07-30 02:00:00 22.4 19 Nordeste 35 Nordeste 0 -- -- 67
2020-07-30 01:00:00 22.6 21 Nordeste 36 Nordeste 0 -- -- 67
2020-07-30 00:00:00 22.6 23 Nordeste 43 Nordeste 0 -- -- 68
2020-07-29 23:00:00 22.8 22 Nordeste 40 Nordeste 0 -- -- 66
2020-07-29 22:00:00 22.9 22 Nordeste 42 Nordeste 0 -- -- 69
2020-07-29 21:00:00 23.2 22 Nordeste 42 Este 0 -- -- 65
2020-07-29 20:00:00 23.7 23 Nordeste 46 Nordeste 0 -- -- 65
2020-07-29 19:00:00 24.1 27 Nordeste 45 Nordeste 0 -- -- 62
2020-07-29 18:00:00 24.9 29 Norte 48 Norte 0 -- -- 64
2020-07-29 17:00:00 25.3 30 Nordeste 50 Nordeste 0 -- -- 59
2020-07-29 16:00:00 25.4 26 Nordeste 51 Nordeste 0 -- -- 62
2020-07-29 15:00:00 25.7 30 Norte 51 Norte 0 -- -- 56
2020-07-29 14:00:00 25.2 30 Nordeste 49 Norte 0 -- -- 60
2020-07-29 13:00:00 24.8 37 Nordeste 58 Nordeste 0 -- -- 60
2020-07-29 12:00:00 24.2 33 Nordeste 55 Nordeste 0 -- -- 63
2020-07-29 11:00:00 23.8 28 Nordeste 51 Nordeste 0 -- -- 64
2020-07-29 10:00:00 23.8 30 Nordeste 52 Nordeste 0 -- -- 65
2020-07-29 09:00:00 23 24 Nordeste 54 Nordeste 0 -- -- 67
2020-07-29 08:00:00 22.4 21 Nordeste 49 Nordeste 0 -- -- 68
2020-07-29 07:00:00 22.2 26 Nordeste 51 Nordeste 0 -- -- 70
2020-07-29 06:00:00 22.3 30 Nordeste 51 Nordeste 0 -- -- 70
2020-07-29 05:00:00 22.3 26 Nordeste 55 Nordeste 0 -- -- 72
2020-07-29 04:00:00 22.5 30 Nordeste 51 Nordeste 0 -- -- 71
2020-07-29 03:00:00 22.4 29 Nordeste 54 Nordeste 0 -- -- 70
2020-07-29 02:00:00 22.5 30 Nordeste 51 Nordeste 0 -- -- 70
2020-07-29 01:00:00 22.7 24 Nordeste 50 Nordeste 0 -- -- 72
2020-07-29 00:00:00 22.5 28 Nordeste 50 Nordeste 0 -- -- 72
2020-07-28 23:00:00 22.8 29 Nordeste 60 Nordeste 0 -- -- 72
2020-07-28 22:00:00 22.8 28 Nordeste 58 Nordeste 0 -- -- 71
2020-07-28 21:00:00 22.8 28 Nordeste 48 Nordeste 0 -- -- 73
2020-07-28 20:00:00 23.1 28 Nordeste 52 Nordeste 0 -- -- 72
2020-07-28 19:00:00 23.9 32 Norte 58 Norte 0 -- -- 69
2020-07-28 18:00:00 24.5 35 Norte 61 Norte 0 -- -- 68
2020-07-28 17:00:00 24.7 39 Norte 73 Norte 0 -- -- 66
2020-07-28 16:00:00 25.1 39 Norte 58 Norte 0 -- -- 64
2020-07-28 15:00:00 25.4 28 Nordeste 57 Norte 0 -- -- 63
2020-07-28 14:00:00 25.3 32 Norte 68 Nordeste 0 -- -- 65
2020-07-28 13:00:00 24.4 40 Nordeste 62 Nordeste 0 -- -- 67
2020-07-28 12:00:00 24.8 29 Norte 69 Nordeste 0 -- -- 66
2020-07-28 11:00:00 23.5 45 Nordeste 66 Nordeste 0 -- -- 72
2020-07-28 10:00:00 23.3 33 Nordeste 68 Nordeste 0 -- -- 70
2020-07-28 09:00:00 22.6 36 Norte 62 Norte 0 -- -- 74
2020-07-28 08:00:00 22 32 Nordeste 69 Norte 0 -- -- 75
2020-07-28 07:00:00 22.3 38 Norte 61 Nordeste 0 -- -- 73
2020-07-28 06:00:00 22.3 36 Norte 60 Norte 0 -- -- 72
2020-07-28 05:00:00 22.4 33 Norte 62 Norte 0 -- -- 71
2020-07-28 04:00:00 22.5 36 Norte 63 Nordeste 0 -- -- 71
2020-07-28 03:00:00 22.6 36 Norte 64 Nordeste 0 -- -- 71
2020-07-28 02:00:00 22.7 35 Norte 64 Nordeste 0 -- -- 73
2020-07-28 01:00:00 22.6 32 Norte 60 Nordeste 0 -- -- 75
2020-07-28 00:00:00 22.7 31 Norte 55 Nordeste 0 -- -- 74
2020-07-27 23:00:00 22.8 34 Norte 61 Norte 0 -- -- 74
2020-07-27 22:00:00 22.9 27 Norte 46 Norte 0 -- -- 74
2020-07-27 21:00:00 23.1 27 Nordeste 51 Norte 0 -- -- 72
2020-07-27 20:00:00 23.4 32 Norte 59 Norte 0 -- -- 71
2020-07-27 19:00:00 24.1 34 Norte 54 Norte 0 -- -- 69
2020-07-27 18:00:00 25.2 28 Norte 51 Norte 0 -- -- 64
2020-07-27 17:00:00 25.2 31 Norte 57 Nordeste 0 -- -- 64
2020-07-27 16:00:00 25.4 30 Norte 53 Norte 0 -- -- 63
2020-07-27 15:00:00 25.6 31 Nordeste 52 Nordeste 0 -- -- 61
2020-07-27 14:00:00 25.6 27 Norte 54 Norte 0 -- -- 60
2020-07-27 13:00:00 25.3 30 Norte 57 Norte 0 -- -- 61
2020-07-27 12:00:00 25.2 29 Nordeste 59 Nordeste 0 -- -- 60
2020-07-27 11:00:00 24.2 37 Norte 62 Norte 0 -- -- 63
2020-07-27 08:00:00 21.9 32 Norte 55 Nordeste 0 -- -- 71
2020-07-27 07:00:00 21.8 32 Norte 62 Nordeste 0 -- -- 71
2020-07-27 06:00:00 21.9 29 Norte 49 Norte 0 -- -- 71
2020-07-27 05:00:00 22.1 25 Norte 53 Nordeste 0 -- -- 72
2020-07-27 04:00:00 21.9 23 Norte 44 Norte 0 -- -- 73
2020-07-27 03:00:00 22.1 22 Norte 48 Nordeste 0 -- -- 72
2020-07-27 02:00:00 22.2 27 Nordeste 48 Nordeste 0 -- -- 72
2020-07-27 01:00:00 22.4 25 Nordeste 40 Nordeste 0 -- -- 72
2020-07-27 00:00:00 22.6 20 Nordeste 39 Nordeste 0 -- -- 70
2020-07-26 23:00:00 22.8 20 Nordeste 42 Nordeste 0 -- -- 68
2020-07-26 22:00:00 23 19 Nordeste 45 Nordeste 0 -- -- 69
2020-07-26 21:00:00 23.2 22 Nordeste 43 Nordeste 0 -- -- 66
2020-07-26 20:00:00 23.8 26 Nordeste 47 Nordeste 0 -- -- 65
2020-07-26 19:00:00 24.9 28 Norte 48 Norte 0 -- -- 63
2020-07-26 18:00:00 25.9 24 Norte 49 Norte 0 -- -- 60
2020-07-26 17:00:00 25.8 28 Norte 47 Norte 0 -- -- 62
2020-07-26 16:00:00 26 26 Nordeste 48 Nordeste 0 -- -- 59
2020-07-26 15:00:00 25.1 28 Nordeste 46 Norte 0 -- -- 62
2020-07-26 14:00:00 25.2 30 Nordeste 45 Nordeste 0 -- -- 60
2020-07-26 13:00:00 24.9 27 Norte 51 Norte 0 -- -- 61
2020-07-26 12:00:00 24.7 26 Norte 46 Nordeste 0 -- -- 62
2020-07-26 11:00:00 23.8 20 Nordeste 41 Nordeste 0 -- -- 65
2020-07-26 10:00:00 23.5 22 Nordeste 40 Nordeste 0 -- -- 67
2020-07-26 09:00:00 22.6 23 Nordeste 39 Nordeste 0 -- -- 72
2020-07-26 08:00:00 22.4 21 Nordeste 35 Nordeste 0 -- -- 73
2020-07-26 07:00:00 22.4 22 Nordeste 36 Nordeste 0 -- -- 72
2020-07-26 06:00:00 22.5 19 Nordeste 33 Nordeste 0 -- -- 72
2020-07-26 05:00:00 22.4 16 Nordeste 33 Nordeste 0 -- -- 72
2020-07-26 04:00:00 22.4 16 Nordeste 37 Norte 0 -- -- 73
2020-07-26 03:00:00 22.4 21 Norte 39 Norte 0 -- -- 73
2020-07-26 02:00:00 22.6 18 Norte 39 Norte 0 -- -- 71
2020-07-26 01:00:00 22.5 19 Nordeste 38 Nordeste 0 -- -- 73
2020-07-26 00:00:00 22.7 18 Nordeste 36 Nordeste 0 -- -- 71
2020-07-25 23:00:00 22.6 27 Nordeste 42 Nordeste 0 -- -- 71
2020-07-25 22:00:00 22.6 31 Norte 50 Norte 0 -- -- 70
2020-07-25 21:00:00 22.5 32 Norte 49 Norte 0 -- -- 70
2020-07-25 20:00:00 23.6 29 Norte 63 Norte 0 -- -- 67
2020-07-25 19:00:00 24.3 34 Norte 55 Norte 0 -- -- 66
2020-07-25 18:00:00 24.8 33 Norte 53 Norte 0 -- -- 65
2020-07-25 17:00:00 25.2 32 Norte 50 Nordeste 0 -- -- 64
2020-07-25 16:00:00 25.8 29 Norte 63 Norte 0 -- -- 61
2020-07-25 15:00:00 24.9 37 Norte 55 Norte 0 -- -- 65
2020-07-25 14:00:00 24.6 37 Norte 53 Norte 0 -- -- 64
2020-07-25 13:00:00 24.7 35 Norte 50 Nordeste 0 -- -- 64
2020-07-25 12:00:00 24.8 30 Norte 49 Norte 0 -- -- 66
2020-07-25 11:00:00 24.1 31 Norte 48 Norte 0 -- -- 64
2020-07-25 10:00:00 23.7 30 Norte 46 Norte 0 -- -- 67
2020-07-25 09:00:00 22.6 31 Norte 45 Nordeste 0 -- -- 69
2020-07-25 08:00:00 21.7 24 Nordeste 36 Norte 0 -- -- 71
2020-07-25 07:00:00 21.6 21 Nordeste 39 Norte 0 -- -- 73
2020-07-25 06:00:00 21.7 22 Nordeste 39 Nordeste 0 -- -- 72
2020-07-25 05:00:00 21.8 21 Nordeste 37 Nordeste 0 -- -- 73
2020-07-25 04:00:00 21.8 22 Nordeste 42 Nordeste 0 -- -- 74
2020-07-25 03:00:00 21.7 22 Nordeste 37 Nordeste 0 -- -- 77
2020-07-25 02:00:00 21.6 26 Nordeste 43 Nordeste 0 -- -- 78
2020-07-25 01:00:00 21.7 23 Norte 46 Nordeste 0 -- -- 78
2020-07-25 00:00:00 21.8 25 Norte 46 Nordeste 0 -- -- 77
2020-07-24 23:00:00 21.9 28 Nordeste 42 Norte 0 -- -- 77
2020-07-24 22:00:00 22.1 25 Nordeste 43 Norte 0 -- -- 76
2020-07-24 21:00:00 22.3 28 Nordeste 51 Norte 0 -- -- 74
2020-07-24 20:00:00 23.1 29 Norte 46 Nordeste 0 -- -- 71
2020-07-24 19:00:00 24.1 30 Norte 48 Nordeste 0 -- -- 68
2020-07-24 18:00:00 24.4 29 Norte 56 Nordeste 0 -- -- 67
2020-07-24 17:00:00 24.2 37 Norte 56 Norte 0 -- -- 69
2020-07-24 16:00:00 24.7 36 Norte 56 Norte 0 -- -- 66
2020-07-24 15:00:00 24.5 38 Norte 55 Norte 0 -- -- 67
2020-07-24 14:00:00 24.3 39 Norte 59 Norte 0 -- -- 67
2020-07-24 13:00:00 24.1 39 Norte 66 Norte 0 -- -- 68
2020-07-24 12:00:00 23.5 45 Norte 63 Norte 0 -- -- 68
2020-07-24 11:00:00 23.2 42 Norte 66 Norte 0 -- -- 69
2020-07-24 10:00:00 -- -- -- -- -- -- -- -- --
2020-07-24 09:00:00 23.2 39 Norte 59 Norte 0 -- -- 69
2020-07-24 08:00:00 21.6 35 Norte 62 Norte 0 -- -- 74
2020-07-24 07:00:00 21.6 29 Norte 55 Norte 0 -- -- 73
2020-07-24 06:00:00 21.5 34 Norte 58 Norte 0 -- -- 73
2020-07-24 05:00:00 21.6 39 Norte 57 Norte 0 -- -- 72
2020-07-24 04:00:00 21.6 33 Norte 60 Norte 0 -- -- 75
2020-07-24 03:00:00 21.7 35 Nordeste 55 Nordeste 0 -- -- 74
2020-07-24 02:00:00 21.9 35 Nordeste 60 Nordeste 0 -- -- 74
2020-07-24 01:00:00 22 36 Norte 57 Norte 0 -- -- 75
2020-07-24 00:00:00 22 36 Norte 63 Norte 0 -- -- 74
2020-07-23 23:00:00 22.2 38 Nordeste 65 Nordeste 0 -- -- 74
2020-07-23 22:00:00 22.3 39 Nordeste 61 Nordeste 0 -- -- 74
2020-07-23 21:00:00 22.5 37 Nordeste 62 Norte 0 -- -- 73
2020-07-23 20:00:00 23.2 36 Norte 59 Norte 0 -- -- 70
2020-07-23 19:00:00 23.8 38 Norte 67 Norte 0 -- -- 69
2020-07-23 18:00:00 24.4 39 Norte 58 Norte 0 -- -- 68
2020-07-23 17:00:00 25.6 28 Norte 58 Norte 0 -- -- 63
2020-07-23 16:00:00 25.3 30 Norte 74 Norte 0 -- -- 63
2020-07-23 15:00:00 25.6 28 Norte 60 Nordeste 0 -- -- 63
2020-07-23 14:00:00 25.3 33 Norte 59 Norte 0 -- -- 64
2020-07-23 13:00:00 25 30 Norte 60 Norte 0 -- -- 64
2020-07-23 12:00:00 24.6 33 Norte 60 Nordeste 0 -- -- 65
2020-07-23 11:00:00 23.8 33 Nordeste 65 Nordeste 0 -- -- 69
2020-07-23 10:00:00 23.3 30 Norte 67 Norte 0 -- -- 69
2020-07-23 09:00:00 22.5 32 Norte 57 Nordeste 0 -- -- 72
2020-07-23 08:00:00 21.8 32 Norte 59 Nordeste 0 -- -- 75
2020-07-23 07:00:00 21.7 35 Norte 55 Norte 0 -- -- 76
2020-07-23 06:00:00 21.8 30 Norte 58 Norte 0 -- -- 75
2020-07-23 05:00:00 21.9 34 Norte 60 Norte 0 -- -- 74
2020-07-23 04:00:00 22 33 Norte 60 Norte 0 -- -- 74
2020-07-23 03:00:00 22.1 37 Norte 61 Norte 0 -- -- 74
2020-07-23 02:00:00 22.3 37 Norte 54 Norte 0 -- -- 74
2020-07-23 01:00:00 22.4 33 Norte 54 Norte 0 -- -- 72
2020-07-23 00:00:00 22.6 36 Norte 54 Nordeste 0 -- -- 72
2020-07-22 23:00:00 22.6 31 Nordeste 56 Norte 0 -- -- 71
2020-07-22 22:00:00 22.8 31 Nordeste 53 Nordeste 0 -- -- 70
2020-07-22 21:00:00 23.1 32 Nordeste 55 Norte 0 -- -- 70
2020-07-22 20:00:00 23.5 31 Nordeste 53 Norte 0 -- -- 69
2020-07-22 19:00:00 24.6 30 Norte 49 Nordeste 0 -- -- 65
2020-07-22 18:00:00 25.1 27 Norte 44 Norte 0 -- -- 62
2020-07-22 17:00:00 25.7 25 Norte 48 Nordeste 0 -- -- 61
2020-07-22 16:00:00 25.9 27 Norte 51 Norte 0 -- -- 61
2020-07-22 15:00:00 25.8 27 Norte 55 Norte 0 -- -- 62
2020-07-22 14:00:00 25.6 31 Nordeste 55 Nordeste 0 -- -- 61
2020-07-22 13:00:00 25.4 30 Norte 58 Nordeste 0 -- -- 60
2020-07-22 12:00:00 24.4 31 Norte 54 Norte 0 -- -- 63
2020-07-22 11:00:00 23.9 28 Nordeste 51 Nordeste 0 -- -- 64
2020-07-22 10:00:00 23.3 28 Norte 49 Nordeste 0 -- -- 66
2020-07-22 09:00:00 22.6 30 Nordeste 51 Nordeste 0 -- -- 69
2020-07-22 08:00:00 22.5 24 Nordeste 46 Nordeste 0 -- -- 71
2020-07-22 07:00:00 22.2 26 Nordeste 52 Nordeste 0 -- -- 70
2020-07-22 06:00:00 22.3 26 Norte 43 Nordeste 0 -- -- 70
2020-07-22 05:00:00 22.4 23 Nordeste 43 Nordeste 0 -- -- 70
2020-07-22 04:00:00 22.6 26 Nordeste 52 Nordeste 0 -- -- 70
2020-07-22 03:00:00 22.5 27 Nordeste 49 Nordeste 0 -- -- 69
2020-07-22 02:00:00 22.7 23 Nordeste 46 Nordeste 0 -- -- 71
2020-07-22 01:00:00 22.7 26 Nordeste 54 Nordeste 0 -- -- 68
2020-07-22 00:00:00 22.6 28 Nordeste 51 Nordeste 0 -- -- 68
2020-07-21 23:00:00 22.7 28 Nordeste 51 Norte 0 -- -- 68
2020-07-21 22:00:00 22.7 29 Nordeste 50 Nordeste 0 -- -- 67
2020-07-21 21:00:00 23 27 Nordeste 46 Nordeste 0 -- -- 68
2020-07-21 20:00:00 23.4 27 Nordeste 45 Nordeste 0 -- -- 66
2020-07-21 19:00:00 24.2 27 Nordeste 47 Norte 0 -- -- 63
2020-07-21 18:00:00 24.7 29 Norte 52 Norte 0 -- -- 61
2020-07-21 17:00:00 25.2 29 Nordeste 51 Nordeste 0 -- -- 61
2020-07-21 16:00:00 24.7 34 Norte 58 Nordeste 0 -- -- 59
2020-07-21 15:00:00 25 30 Norte 53 Norte 0 -- -- 58
2020-07-21 14:00:00 24.9 28 Nordeste 64 Nordeste 0 -- -- 58
2020-07-21 13:00:00 24.4 32 Norte 54 Norte 0 -- -- 58
2020-07-21 12:00:00 24.5 29 Nordeste 53 Nordeste 0 -- -- 59
2020-07-21 11:00:00 23.8 33 Nordeste 51 Norte 0 -- -- 62
2020-07-21 10:00:00 23.1 32 Norte 55 Nordeste 0 -- -- 62
2020-07-21 09:00:00 22.7 28 Nordeste 52 Nordeste 0 -- -- 65
2020-07-21 08:00:00 22.1 28 Nordeste 46 Nordeste 0 -- -- 68
2020-07-21 07:00:00 22 24 Nordeste 50 Nordeste 0 -- -- 68
2020-07-21 06:00:00 22 32 Nordeste 51 Nordeste 0 -- -- 70
2020-07-21 05:00:00 22.1 30 Nordeste 54 Nordeste 0 -- -- 69
2020-07-21 04:00:00 22.2 24 Nordeste 46 Nordeste 0 -- -- 70
2020-07-21 03:00:00 22.2 25 Nordeste 42 Nordeste 0 -- -- 70
2020-07-21 02:00:00 22.3 22 Nordeste 44 Norte 0 -- -- 70
2020-07-21 01:00:00 22.4 25 Nordeste 46 Nordeste 0 -- -- 71
2020-07-21 00:00:00 22.7 28 Nordeste 43 Norte 0 -- -- 71
2020-07-20 23:00:00 22.6 27 Nordeste 44 Nordeste 0 -- -- 70
2020-07-20 22:00:00 22.7 24 Nordeste 47 Nordeste 0 -- -- 70
2020-07-20 21:00:00 22.9 28 Nordeste 55 Norte 0 -- -- 70
2020-07-20 20:00:00 23.8 28 Nordeste 54 Nordeste 0 -- -- 67
2020-07-20 19:00:00 24.3 29 Nordeste 51 Nordeste 0 -- -- 64
2020-07-20 18:00:00 24.8 33 Nordeste 56 Nordeste 0 -- -- 62
2020-07-20 17:00:00 25.1 31 Norte 56 Nordeste 0 -- -- 63
2020-07-20 16:00:00 25.4 33 Norte 52 Norte 0 -- -- 60
2020-07-20 15:00:00 25.6 31 Norte 54 Norte 0 -- -- 61
2020-07-20 14:00:00 25.5 28 Norte 53 Norte 0 -- -- 62
2020-07-20 13:00:00 24.9 36 Norte 54 Nordeste 0 -- -- 65
2020-07-20 12:00:00 24.4 32 Norte 50 Nordeste 0 -- -- 66
2020-07-20 11:00:00 24 29 Norte 50 Norte 0 -- -- 69
2020-07-20 10:00:00 23.4 29 Norte 58 Norte 0 -- -- 72
2020-07-20 09:00:00 22.8 29 Norte 46 Norte 0 -- -- 75
2020-07-20 08:00:00 22.5 31 Nordeste 48 Norte 0 -- -- 75
2020-07-20 07:00:00 22.5 28 Norte 49 Norte 0 -- -- 74
2020-07-20 06:00:00 22.4 29 Nordeste 45 Nordeste 0 -- -- 77
2020-07-20 05:00:00 22.4 27 Nordeste 44 Norte 0 -- -- 78
2020-07-20 04:00:00 22.6 25 Norte 43 Norte 0 -- -- 79
2020-07-20 03:00:00 23.2 29 Norte 43 Norte 0 -- -- 75
2020-07-20 02:00:00 24.4 30 Norte 42 Norte 0 -- -- 61
2020-07-20 01:00:00 24.8 32 Norte 42 Norte 0 -- -- 58
2020-07-20 00:00:00 28.4 23 Norte 37 Nordeste 0 -- -- 34
2020-07-19 23:00:00 28.1 25 Nordeste 41 Nordeste 0 -- -- 37
2020-07-19 22:00:00 26.1 21 Nordeste 37 Nordeste 0 -- -- 54
2020-07-19 21:00:00 27.9 22 Norte 48 Norte 0 -- -- 41
2020-07-19 20:00:00 26.1 29 Norte 55 Norte 0 -- -- 60
2020-07-19 19:00:00 26.5 38 Norte 55 Norte 0 -- -- 60
2020-07-19 18:00:00 28.3 37 Norte 46 Norte 0 -- -- 45
2020-07-19 17:00:00 31 27 Norte 51 Norte 0 -- -- 36
2020-07-19 16:00:00 28.9 36 Norte 70 Norte 0 -- -- 50
2020-07-19 15:00:00 25.9 48 Norte 67 Norte 0 -- -- 63
2020-07-19 14:00:00 25.3 50 Norte 57 Norte 0 -- -- 67
2020-07-19 13:00:00 24.8 49 Norte 64 Norte 0 -- -- 71
2020-07-19 12:00:00 24.9 47 Norte 59 Norte 0 -- -- 68
2020-07-19 11:00:00 27.4 37 Norte 46 Norte 0 -- -- 48
2020-07-19 10:00:00 31.3 24 Nordeste 39 Nordeste 0 -- -- 25
2020-07-19 09:00:00 30.7 18 Nordeste 41 Nordeste 0 -- -- 24
2020-07-19 08:00:00 29.2 21 Norte 50 Nordeste 0 -- -- 27
2020-07-19 07:00:00 28.4 27 Nordeste 47 Nordeste 0 -- -- 29
2020-07-19 06:00:00 29.1 28 Nordeste 53 Nordeste 0 -- -- 29
2020-07-19 05:00:00 25.5 31 Norte 51 Norte 0 -- -- 49
2020-07-19 04:00:00 23.4 32 Norte 62 Norte 0 -- -- 76
2020-07-19 03:00:00 22.7 42 Norte 61 Norte 0 -- -- 84
2020-07-19 02:00:00 22.9 43 Norte 58 Norte 0 -- -- 83
2020-07-19 01:00:00 22.6 46 Norte 59 Noroeste 0 -- -- 85
2020-07-19 00:00:00 23.1 48 Norte 55 Norte 0 -- -- 81
2020-07-18 23:00:00 28.4 15 Norte 33 Norte 0 -- -- 38
2020-07-18 22:00:00 26.2 18 Norte 58 Norte 0 -- -- 45
2020-07-18 21:00:00 23.3 43 Norte 52 Norte 0 -- -- 82
2020-07-18 20:00:00 24.9 20 Norte 42 Norte 0 -- -- 72
2020-07-18 19:00:00 25.8 19 Norte 45 Norte 0 -- -- 69
2020-07-18 18:00:00 27.4 27 Nordeste 49 Norte 0 -- -- 61
2020-07-18 17:00:00 28.1 31 Norte 47 Norte 0 -- -- 59
2020-07-18 16:00:00 27.5 23 Norte 50 Norte 0 -- -- 63
2020-07-18 15:00:00 26.1 31 Norte 47 Norte 0 -- -- 70
2020-07-18 14:00:00 25.9 16 Nordeste 39 Norte 0 -- -- 72
2020-07-18 13:00:00 25.1 25 Sudeste 38 Norte 0 -- -- 71
2020-07-18 12:00:00 26 9 Sur 25 Noroeste 0 -- -- 68
2020-07-18 11:00:00 24.8 8 Sur 18 Sudeste 0 -- -- 75
2020-07-18 10:00:00 23.3 11 Sudoeste 19 Sur 0 -- -- 78
2020-07-18 09:00:00 23.3 10 Sudeste 26 Este 0 -- -- 76
2020-07-18 08:00:00 22.3 11 Sudeste 24 Este 0 -- -- 78
2020-07-18 07:00:00 22 10 Sudoeste 22 Sudeste 0 -- -- 78
2020-07-18 06:00:00 22 10 Sudoeste 24 Sudeste 0 -- -- 79
2020-07-18 05:00:00 22.1 9 Sur 23 Sudeste 0 -- -- 78
2020-07-18 04:00:00 22.2 6 Sudoeste 18 Norte 0 -- -- 78
2020-07-18 03:00:00 22.3 8 Oeste 15 Norte 0 -- -- 76
2020-07-18 02:00:00 22.4 9 Sudoeste 22 Norte 0 -- -- 77
2020-07-18 01:00:00 22.3 10 Nordeste 24 Nordeste 0 -- -- 78
2020-07-18 00:00:00 22.4 9 Nordeste 27 Norte 0 -- -- 78
2020-07-17 23:00:00 22.6 8 Este 28 Este 0 -- -- 77
2020-07-17 22:00:00 22.8 5 Sur 30 Norte 0 -- -- 75
2020-07-17 21:00:00 22.7 12 Nordeste 32 Norte 0 -- -- 77
2020-07-17 20:00:00 23.3 22 Norte 37 Norte 0 -- -- 76
2020-07-17 19:00:00 24.1 21 Norte 41 Norte 0 -- -- 73
2020-07-17 18:00:00 23.9 29 Norte 39 Norte 0 -- -- 74
2020-07-17 17:00:00 24.3 25 Norte 46 Norte 0 -- -- 73
2020-07-17 16:00:00 24 27 Norte 36 Norte 0 -- -- 73
2020-07-17 15:00:00 23.1 22 Norte 36 Norte 0 -- -- 77
2020-07-17 14:00:00 23.4 25 Norte 45 Norte 0 -- -- 75
2020-07-17 13:00:00 23.3 25 Norte 35 Norte 0 -- -- 76
2020-07-17 12:00:00 23.3 22 Norte 37 Norte 0 -- -- 76
2020-07-17 11:00:00 23.2 19 Norte 29 Norte 0 -- -- 76
2020-07-17 10:00:00 22.9 15 Norte 24 Este 0 -- -- 76
2020-07-17 09:00:00 22.2 10 Este 26 Nordeste 0 -- -- 78
2020-07-17 08:00:00 21.5 11 Nordeste 26 Nordeste 0 -- -- 80
2020-07-17 07:00:00 21.4 9 Nordeste 27 Este 0 -- -- 80
2020-07-17 06:00:00 21.5 9 Nordeste 26 Este 0 -- -- 80
2020-07-17 05:00:00 21.6 7 Este 22 Este 0 -- -- 79
2020-07-17 04:00:00 21.6 8 Este 26 Nordeste 0 -- -- 78
2020-07-17 03:00:00 21.8 7 Nordeste 24 Nordeste 0 -- -- 77
2020-07-17 02:00:00 21.8 13 Nordeste 28 Este 0 -- -- 77
2020-07-17 01:00:00 22 9 Sudeste 27 Sudeste 0 -- -- 77
2020-07-17 00:00:00 22.3 9 Sudoeste 23 Noroeste 0 -- -- 75
2020-07-16 23:00:00 22.3 9 Oeste 30 Norte 0 -- -- 77
2020-07-16 22:00:00 22.5 10 Nordeste 32 Este 0 -- -- 75
2020-07-16 21:00:00 22.9 6 Nordeste 25 Norte 0 -- -- 73
2020-07-16 20:00:00 23.5 13 Nordeste 32 Nordeste 0 -- -- 71
2020-07-16 19:00:00 24.5 13 Nordeste 38 Norte 0 -- -- 69
2020-07-16 18:00:00 23.2 36 Norte 59 Norte 0 -- -- 74
2020-07-16 17:00:00 23.5 36 Norte 55 Norte 0 -- -- 72
2020-07-16 16:00:00 23.9 32 Norte 43 Norte 0 -- -- 71
2020-07-16 15:00:00 24.5 28 Norte 40 Norte 0 -- -- 69
2020-07-16 14:00:00 24.4 24 Norte 43 Norte 0 -- -- 69
2020-07-16 13:00:00 24.1 22 Norte 40 Norte 0 -- -- 70
2020-07-16 12:00:00 23.6 24 Norte 35 Norte 0 -- -- 70
2020-07-16 11:00:00 23.9 12 Norte 31 Nordeste 0 -- -- 69
2020-07-16 10:00:00 22.8 18 Nordeste 36 Nordeste 0 -- -- 72
2020-07-16 09:00:00 22.2 18 Nordeste 43 Nordeste 0 -- -- 75
2020-07-16 08:00:00 21.5 18 Nordeste 34 Nordeste 0 -- -- 78
2020-07-16 07:00:00 21.3 16 Nordeste 39 Nordeste 0 -- -- 78
2020-07-16 06:00:00 21.3 17 Norte 41 Nordeste 0 -- -- 78
2020-07-16 05:00:00 21.3 21 Nordeste 44 Norte 0 -- -- 79
2020-07-16 04:00:00 21.3 23 Norte 44 Nordeste 0 -- -- 79
2020-07-16 03:00:00 21.5 19 Nordeste 45 Nordeste 0 -- -- 78
2020-07-16 02:00:00 21.5 28 Nordeste 52 Nordeste 0 -- -- 78
2020-07-16 01:00:00 21.7 25 Norte 58 Norte 0 -- -- 77
2020-07-16 00:00:00 21.9 30 Norte 53 Norte 0 -- -- 77
2020-07-15 23:00:00 21.9 29 Norte 48 Norte 0 -- -- 77
2020-07-15 22:00:00 22.1 26 Norte 49 Norte 0 -- -- 76
2020-07-15 21:00:00 22.3 31 Norte 63 Norte 0 -- -- 78
2020-07-15 20:00:00 22.9 32 Norte 50 Norte 0 -- -- 72
2020-07-15 19:00:00 23.3 32 Norte 53 Norte 0 -- -- 72
2020-07-15 18:00:00 23.5 27 Norte 42 Norte 0 -- -- 72
2020-07-15 17:00:00 24 23 Norte 46 Norte 0 -- -- 71
2020-07-15 16:00:00 23.9 28 Norte 48 Norte 0 -- -- 73
2020-07-15 15:00:00 24.5 31 Norte 51 Norte 0 -- -- 71
2020-07-15 14:00:00 24.1 34 Norte 51 Norte 0 -- -- 72
2020-07-15 13:00:00 24.3 31 Norte 48 Norte 0 -- -- 70
2020-07-15 12:00:00 24.2 25 Norte 39 Norte 0 -- -- 70
2020-07-15 11:00:00 23.5 22 Norte 40 Norte 0 -- -- 72
2020-07-15 10:00:00 23.3 21 Norte 39 Nordeste 0 -- -- 71
2020-07-15 09:00:00 22.4 20 Nordeste 37 Nordeste 0 -- -- 75
2020-07-15 08:00:00 22 20 Nordeste 36 Nordeste 0 -- -- 76
2020-07-15 07:00:00 21.7 26 Nordeste 42 Norte 0 -- -- 76
2020-07-15 06:00:00 21.7 26 Norte 42 Norte 0 -- -- 74
2020-07-15 05:00:00 21.6 23 Norte 33 Norte 0 -- -- 75
2020-07-15 04:00:00 21.8 19 Nordeste 31 Nordeste 0 -- -- 76
2020-07-15 03:00:00 21.8 17 Nordeste 32 Nordeste 0 -- -- 76
2020-07-15 02:00:00 21.9 18 Nordeste 29 Nordeste 0 -- -- 75
2020-07-15 01:00:00 22 13 Nordeste 29 Nordeste 0 -- -- 78
2020-07-15 00:00:00 22.1 18 Nordeste 34 Norte 0 -- -- 75
2020-07-14 23:00:00 22.3 19 Norte 34 Norte 0 -- -- 77
2020-07-14 22:00:00 22.4 19 Nordeste 39 Nordeste 0 -- -- 77
2020-07-14 21:00:00 22.6 21 Nordeste 36 Norte 0 -- -- 77
2020-07-14 20:00:00 23 18 Nordeste 36 Nordeste 0 -- -- 74
2020-07-14 19:00:00 23.2 17 Nordeste 44 Norte 0 -- -- 74
2020-07-14 18:00:00 23 20 Nordeste 39 Norte 0 -- -- 74
2020-07-14 17:00:00 23.4 18 Norte 37 Norte 0 -- -- 71
2020-07-14 16:00:00 23.3 24 Norte 37 Norte 0 -- -- 71
2020-07-14 15:00:00 24 26 Norte 38 Norte 0 -- -- 67
2020-07-14 14:00:00 23.5 26 Norte 46 Nordeste 0 -- -- 68
2020-07-14 13:00:00 23.4 23 Norte 39 Norte 0 -- -- 68
2020-07-14 12:00:00 22.7 21 Norte 35 Norte 0 -- -- 70
2020-07-14 11:00:00 23 18 Nordeste 33 Norte 0 -- -- 67
2020-07-14 10:00:00 21.8 19 Norte 30 Nordeste 0 -- -- 70
2020-07-14 09:00:00 21.6 17 Nordeste 30 Nordeste 0 -- -- 68
2020-07-14 08:00:00 21.5 17 Nordeste 31 Nordeste 0 -- -- 70
2020-07-14 07:00:00 21.2 15 Nordeste 29 Nordeste 0 -- -- 70
2020-07-14 06:00:00 21.4 22 Nordeste 35 Este 0 -- -- 70
2020-07-14 05:00:00 21.5 19 Nordeste 36 Nordeste 0 -- -- 71
2020-07-14 04:00:00 21.3 18 Nordeste 35 Nordeste 0 -- -- 72
2020-07-14 03:00:00 21.3 18 Nordeste 33 Norte 0 -- -- 72
2020-07-14 02:00:00 21.3 22 Nordeste 36 Nordeste 0 -- -- 71
2020-07-14 01:00:00 21.5 21 Nordeste 35 Nordeste 0 -- -- 72
2020-07-14 00:00:00 21.9 21 Nordeste 36 Norte 0 -- -- 72
2020-07-13 23:00:00 22.1 19 Nordeste 35 Nordeste 0 -- -- 72
2020-07-13 22:00:00 22.1 18 Norte 38 Norte 0 -- -- 71
2020-07-13 21:00:00 22.5 20 Norte 44 Nordeste 0 -- -- 72
2020-07-13 20:00:00 22.6 26 Norte 47 Norte 0 -- -- 69
2020-07-13 19:00:00 23.8 27 Norte 45 Norte 0 -- -- 65
2020-07-13 18:00:00 24.2 26 Nordeste 44 Nordeste 0 -- -- 66
2020-07-13 17:00:00 24.6 22 Norte 44 Norte 0 -- -- 65
2020-07-13 16:00:00 24.8 26 Norte 49 Norte 0 -- -- 64
2020-07-13 15:00:00 24.4 32 Norte 45 Norte 0 -- -- 67
2020-07-13 14:00:00 25 24 Norte 50 Norte 0 -- -- 63
2020-07-13 13:00:00 24.1 27 Norte 44 Norte 0 -- -- 67
2020-07-13 12:00:00 23.9 24 Nordeste 43 Nordeste 0 -- -- 67
2020-07-13 11:00:00 23.2 23 Nordeste 48 Norte 0 -- -- 71
2020-07-13 10:00:00 22.8 15 Norte 41 Nordeste 0 -- -- 71
2020-07-13 09:00:00 22 19 Nordeste 38 Nordeste 0 -- -- 74
2020-07-13 08:00:00 21.3 19 Nordeste 41 Este 0 -- -- 76
2020-07-13 07:00:00 21.1 15 Nordeste 32 Nordeste 0 -- -- 77
2020-07-13 06:00:00 21.3 11 Nordeste 35 Este 0 -- -- 76
2020-07-13 05:00:00 21.5 9 Nordeste 37 Este 0 -- -- 75
2020-07-13 04:00:00 21.6 11 Nordeste 35 Nordeste 0 -- -- 75
2020-07-13 03:00:00 22.1 8 Sudeste 26 Sudeste 0 -- -- 71
2020-07-13 02:00:00 22.5 13 Sur 45 Sudeste 0 -- -- 73
2020-07-13 01:00:00 22.2 10 Sudeste 35 Este 0 -- -- 72
2020-07-13 00:00:00 22.2 8 Nordeste 41 Nordeste 0 -- -- 73
2020-07-12 23:00:00 22.2 22 Nordeste 42 Nordeste 0 -- -- 73
2020-07-12 22:00:00 22.6 15 Norte 31 Norte 0 -- -- 71
2020-07-12 21:00:00 22.9 18 Norte 41 Nordeste 0 -- -- 72
2020-07-12 20:00:00 23.9 16 Norte 44 Nordeste 0 -- -- 68
2020-07-12 19:00:00 24.9 21 Nordeste 44 Nordeste 0 -- -- 65
2020-07-12 18:00:00 26.1 15 Norte 45 Nordeste 0 -- -- 62
2020-07-12 17:00:00 26.1 21 Nordeste 43 Nordeste 0 -- -- 61
2020-07-12 16:00:00 26.5 18 Nordeste 42 Este 0 -- -- 61
2020-07-12 15:00:00 26.8 17 Nordeste 45 Nordeste 0 -- -- 59
2020-07-12 14:00:00 26.2 22 Nordeste 46 Nordeste 0 -- -- 61
2020-07-12 13:00:00 25.1 21 Norte 42 Norte 0 -- -- 63
2020-07-12 12:00:00 23.9 31 Norte 46 Norte 0 -- -- 67
2020-07-12 11:00:00 24.8 16 Nordeste 38 Nordeste 0 -- -- 62
2020-07-12 10:00:00 23.9 10 Este 29 Nordeste 0 -- -- 67
2020-07-12 09:00:00 22.6 14 Nordeste 43 Nordeste 0 -- -- 71
2020-07-12 08:00:00 21.6 15 Nordeste 39 Nordeste 0 -- -- 75
2020-07-12 07:00:00 21.3 12 Nordeste 32 Nordeste 0 -- -- 76
2020-07-12 06:00:00 21.4 14 Nordeste 44 Nordeste 0 -- -- 76
2020-07-12 05:00:00 21.5 22 Nordeste 50 Nordeste 0 -- -- 74
2020-07-12 04:00:00 21.6 30 Norte 54 Norte 0 -- -- 73
2020-07-12 03:00:00 21.8 32 Norte 53 Norte 0 -- -- 75
2020-07-12 02:00:00 22.1 35 Norte 55 Norte 0 -- -- 72
2020-07-12 01:00:00 22.3 31 Norte 52 Norte 0 -- -- 71
2020-07-12 00:00:00 22.3 30 Norte 51 Nordeste 0 -- -- 71
2020-07-11 23:00:00 22.3 31 Norte 58 Norte 0 -- -- 72
2020-07-11 22:00:00 22.5 30 Norte 52 Norte 0 -- -- 71
2020-07-11 21:00:00 22.7 33 Norte 51 Norte 0 -- -- 70
2020-07-11 20:00:00 23.3 30 Norte 51 Norte 0 -- -- 67
2020-07-11 19:00:00 23.9 32 Norte 80 Norte 0 -- -- 66
2020-07-11 18:00:00 23.9 37 Norte 56 Norte 0 -- -- 69
2020-07-11 17:00:00 24.3 35 Norte 58 Norte 0 -- -- 66
2020-07-11 16:00:00 24 40 Norte 58 Nordeste 0 -- -- 69
2020-07-11 15:00:00 24.3 39 Norte 59 Norte 0 -- -- 67
2020-07-11 14:00:00 24 38 Norte 57 Norte 0 -- -- 68
2020-07-11 13:00:00 23.5 40 Norte 54 Norte 0 -- -- 71
2020-07-11 12:00:00 23.2 38 Norte 50 Norte 0 -- -- 72
2020-07-11 11:00:00 23.5 29 Norte 46 Norte 0 -- -- 67
2020-07-11 10:00:00 23 28 Norte 47 Norte 0 -- -- 70
2020-07-11 09:00:00 22.3 23 Norte 39 Nordeste 0 -- -- 72
2020-07-11 08:00:00 21.9 23 Nordeste 37 Nordeste 0 -- -- 75
2020-07-11 07:00:00 21.7 22 Nordeste 40 Nordeste 0 -- -- 76
2020-07-11 06:00:00 21.8 19 Nordeste 39 Norte 0 -- -- 76
2020-07-11 05:00:00 21.9 23 Norte 40 Nordeste 0 -- -- 73
2020-07-11 04:00:00 22.1 21 Nordeste 40 Norte 0 -- -- 74
2020-07-11 03:00:00 22.2 22 Nordeste 35 Nordeste 0 -- -- 74
2020-07-11 02:00:00 22.3 21 Nordeste 40 Nordeste 0 -- -- 73
2020-07-11 01:00:00 22.4 21 Nordeste 35 Nordeste 0 -- -- 72
2020-07-11 00:00:00 22.5 22 Nordeste 37 Nordeste 0 -- -- 72
2020-07-10 23:00:00 22.5 23 Nordeste 40 Nordeste 0 -- -- 71
2020-07-10 22:00:00 22.6 23 Nordeste 40 Norte 0 -- -- 71
2020-07-10 21:00:00 23 19 Nordeste 39 Nordeste 0 -- -- 69
2020-07-10 20:00:00 23.1 21 Nordeste 49 Nordeste 0 -- -- 71
2020-07-10 19:00:00 23.2 28 Norte 47 Nordeste 0 -- -- 68
2020-07-10 18:00:00 24.7 27 Nordeste 49 Norte 0 -- -- 64
2020-07-10 17:00:00 24.7 30 Nordeste 46 Norte 0 -- -- 65
2020-07-10 16:00:00 25.2 27 Norte 46 Norte 0 -- -- 61
2020-07-10 15:00:00 24.4 30 Norte 48 Nordeste 0 -- -- 64
2020-07-10 14:00:00 24.8 23 Nordeste 48 Nordeste 0 -- -- 63
2020-07-10 13:00:00 24.6 27 Nordeste 49 Norte 0 -- -- 61
2020-07-10 12:00:00 24.3 19 Nordeste 42 Nordeste 0 -- -- 63
2020-07-10 11:00:00 23.5 24 Nordeste 45 Nordeste 0 -- -- 63
2020-07-10 10:00:00 22.8 24 Nordeste 45 Nordeste 0 -- -- 67
2020-07-10 09:00:00 21.9 24 Nordeste 43 Nordeste 0 -- -- 70
2020-07-10 08:00:00 21.8 21 Nordeste 39 Nordeste 0 -- -- 69
2020-07-10 07:00:00 21.8 24 Nordeste 37 Nordeste 0 -- -- 70
2020-07-10 06:00:00 21.6 20 Nordeste 39 Nordeste 0 -- -- 70
2020-07-10 05:00:00 21.6 19 Nordeste 38 Nordeste 0 -- -- 71
2020-07-10 04:00:00 21.5 21 Nordeste 37 Nordeste 0 -- -- 70
2020-07-10 03:00:00 21.5 21 Nordeste 40 Nordeste 0 -- -- 71
2020-07-10 02:00:00 21.6 22 Nordeste 40 Nordeste 0 -- -- 71
2020-07-10 01:00:00 21.7 22 Nordeste 41 Nordeste 0 -- -- 71
2020-07-10 00:00:00 22 23 Nordeste 42 Nordeste 0 -- -- 72
2020-07-09 23:00:00 21.9 22 Nordeste 44 Norte 0 -- -- 71
2020-07-09 22:00:00 21.9 27 Nordeste 52 Nordeste 0 -- -- 72
2020-07-09 21:00:00 22 36 Norte 57 Norte 0 -- -- 72
2020-07-09 20:00:00 22.6 35 Norte 60 Norte 0 -- -- 70
2020-07-09 19:00:00 23.3 37 Norte 56 Norte 0 -- -- 69
2020-07-09 18:00:00 24.1 39 Norte 69 Norte 0 -- -- 65
2020-07-09 17:00:00 24.8 38 Norte 53 Norte 0 -- -- 62
2020-07-09 16:00:00 25.3 35 Norte 56 Norte 0 -- -- 62
2020-07-09 15:00:00 25.5 33 Norte 53 Norte 0 -- -- 62
2020-07-09 14:00:00 25.4 37 Norte 59 Norte 0 -- -- 63
2020-07-09 13:00:00 25.1 38 Norte 58 Norte 0 -- -- 63
2020-07-09 12:00:00 24.6 37 Norte 55 Norte 0 -- -- 65
2020-07-09 11:00:00 24.1 35 Norte 51 Norte 0 -- -- 66
2020-07-09 10:00:00 23.3 36 Norte 50 Norte 0 -- -- 66
2020-07-09 09:00:00 22.6 30 Norte 52 Norte 0 -- -- 69
2020-07-09 08:00:00 22 32 Norte 48 Norte 0 -- -- 71
2020-07-09 07:00:00 21.9 24 Norte 44 Norte 0 -- -- 71
2020-07-09 06:00:00 22.3 20 Norte 43 Norte 0 -- -- 69
2020-07-09 05:00:00 22.1 30 Norte 46 Norte 0 -- -- 74
2020-07-09 04:00:00 21.8 28 Norte 48 Norte 0 -- -- 77
2020-07-09 03:00:00 22 25 Norte 48 Norte 0 -- -- 78
2020-07-09 02:00:00 22.5 23 Norte 44 Norte 0 -- -- 74
2020-07-09 01:00:00 22.9 18 Norte 36 Norte 0 -- -- 71
2020-07-09 00:00:00 23.9 15 Norte 35 Norte 0 -- -- 65
2020-07-08 23:00:00 23.3 24 Norte 41 Norte 0 -- -- 72
2020-07-08 22:00:00 24 22 Norte 40 Norte 0 -- -- 66
2020-07-08 21:00:00 25.4 24 Nordeste 48 Norte 0 -- -- 60
2020-07-08 20:00:00 24.8 30 Norte 54 Norte 0 -- -- 66
2020-07-08 19:00:00 27.3 32 Norte 50 Norte 0 -- -- 55
2020-07-08 18:00:00 27.4 37 Norte 60 Norte 0 -- -- 53
2020-07-08 17:00:00 29.5 33 Norte 48 Norte 0 -- -- 46
2020-07-08 16:00:00 32 32 Nordeste 53 Nordeste 0 -- -- 32
2020-07-08 15:00:00 25.3 31 Norte 69 Norte 0 -- -- 69
2020-07-08 14:00:00 23.8 53 Norte 74 Norte 0 -- -- 74
2020-07-08 13:00:00 23.7 48 Norte 70 Norte 0 -- -- 76
2020-07-08 12:00:00 23.3 54 Norte 66 Norte 0 -- -- 77
2020-07-08 11:00:00 24.7 21 Nordeste 46 Norte 0 -- -- 67
2020-07-08 10:00:00 23.7 20 Nordeste 42 Nordeste 0 -- -- 72
2020-07-08 09:00:00 22.5 23 Norte 46 Norte 0 -- -- 78
2020-07-08 08:00:00 22.1 27 Norte 48 Nordeste 0 -- -- 81
2020-07-08 07:00:00 22.1 24 Nordeste 48 Norte 0 -- -- 81
2020-07-08 06:00:00 22.2 13 Nordeste 36 Nordeste 0 -- -- 79
2020-07-08 05:00:00 22.6 8 Nordeste 23 Este 0 -- -- 76
2020-07-08 04:00:00 22.6 9 Este 32 Nordeste 0 -- -- 76
2020-07-08 03:00:00 22.1 18 Norte 33 Nordeste 0 -- -- 82
2020-07-08 02:00:00 22.3 11 Nordeste 24 Norte 0 -- -- 82
2020-07-08 01:00:00 22.7 9 Nordeste 25 Nordeste 0 -- -- 80
2020-07-08 00:00:00 22.7 13 Nordeste 36 Nordeste 0 -- -- 82